Aérodrome :
LOGIN :

S'inscrire | Disclaimer

   EN    FR    IT 

 










Légende :    VFR   VFR Marginal   IFR   IFR Intensif   IFR Très Intensif
Visi : 
Plafond : 
>= 8 km
>= 3000ft
5 à 8 km
1000 à 3000 ft
1500m à 5 km
500 à 1000 ft
800 à 1500m
200 à 500 ft
< 800m
< 200 ft
Symboles :   Orages  Brouillard  Fortes neiges  Fortes précipitations  Vent > 20 kt
SIGMETs :   Divers  Orages  Givrage  Turbulence  Onde Orograph.  Cendres Volcan.






- Altitude de l'aérodrome : 29 ft
- Code IATA : SVG


ENZV - Sola

DERNIER METAR :
  • 091420Z 32017KT CAVOK 07/M02 Q1028 NOSIG

METARs EXPIRÉS :
  • 091350Z 33017KT CAVOK 07/M02 Q1028 NOSIG
  • 091320Z 32018KT 9999 FEW040 BKN050 07/M03 Q1028 NOSIG
  • 091250Z 33016KT 9999 FEW030 BKN050 07/M03 Q1028 NOSIG
  • 091220Z 34015KT 9999 VCSH FEW030 BKN050 07/M01 Q1027 NOSIG
  • 091150Z 34016KT 9999 VCSH FEW025 BKN050 06/00 Q1027 NOSIG

TAF TAF ENZV
Valide du 09 à 12h jusqu'au 10 à 12h UTC


0912/1012 34010KT 9999 FEW025 BKN050
TEMPO 0912/0918 34015G25KT



MET'MAP, la Météo Aéronautique d'un coup d'oeil ! - Copyright ORBIFLY Décembre 2007 - Disclaimer

ORBIFLY MET'MAP TEAM :

Programmation & Développement : Alexandra Zaïnal
Sur une idée originale de : Baudouin d'Aumeries
Assistance à la programmation : Marc-Olivier Méhu
Soutien technique & logistique : Manuel Goepfert

Contact : metmap@orbifly.com




SOURCES & CREDITS :

   NOAA